Azuryth — 5BCA4 — position and weather

sailwx.info

Track history (hours):
 
Tides and Currents Weather Stations Pressure Air Temp Water Temp Dewpoint Dewpoint Depression Visibility Wind Speed Wind Dir Waves Ship Positions

Azuryth

Last reported at 2018-Jul-23 09:30 UTC. Time now 2018-Jul-23 09:42 UTC.
Position N 50°04' W 002°35'.

Length 105 m; draft 5.6 m.

Type: Ship (hazmat cat B). MMSI: 212228000.

Date/timePositionNaut miles runAvg speedWind from/ knotsBaromVisibWave heightAir tempDewpointWater temp
2018-Jul-23 09:30N 50°04' W 002°35'1012.9
2018-Jul-23 08:45N 50°06' W 002°21'312.6
2018-Jul-23 08:30N 50°07' W 002°16'612.4
2018-Jul-23 07:59N 50°09' W 002°06'611.8
2018-Jul-23 07:30N 50°11' W 001°58'611.3
2018-Jul-23 07:00N 50°12' W 001°49'510.8
2018-Jul-23 06:30N 50°13' W 001°41'610.4
2018-Jul-23 05:58N 50°15' W 001°33'510.0
2018-Jul-23 05:31N 50°16' W 001°26'5 9.8
2018-Jul-23 05:00N 50°17' W 001°18'5 9.7
2018-Jul-23 04:31N 50°19' W 001°11'5 9.5
2018-Jul-23 04:00N 50°20' W 001°04'5 9.8
2018-Jul-23 03:30N 50°22' W 000°57'510.6
2018-Jul-23 03:00N 50°24' W 000°49'611.1
2018-Jul-23 02:30N 50°25' W 000°40'611.3
2018-Jul-23 02:01N 50°26' W 000°32'611.7
2018-Jul-23 01:31N 50°28' W 000°23'612.0
2018-Jul-23 01:01N 50°29' W 000°14'612.2
2018-Jul-23 00:30N 50°31' W 000°05'612.5
2018-Jul-23 00:00N 50°33' E 000°05'612.6
2018-Jul-22 23:30N 50°34' E 000°14'612.7
2018-Jul-22 23:00N 50°36' E 000°24'612.3
2018-Jul-22 22:30N 50°38' E 000°33'611.9
2018-Jul-22 22:00N 50°41' E 000°41'611.6
2018-Jul-22 21:31N 50°44' E 000°49'611.2
2018-Jul-22 21:01N 50°48' E 000°56'510.7
2018-Jul-22 20:31N 50°51' E 001°02'510.5
2018-Jul-22 20:00N 50°54' E 001°09'510.2
2018-Jul-22 19:30N 50°57' E 001°15'510.0
2018-Jul-22 19:00N 51°01' E 001°21'510.6
2018-Jul-22 18:30N 51°04' E 001°28'612.4
2018-Jul-22 18:00N 51°08' E 001°35'612.8
2018-Jul-22 17:31N 51°12' E 001°43'713.0
2018-Jul-22 17:00N 51°17' E 001°50'713.6
2018-Jul-22 16:31N 51°23' E 001°57'510.3
2018-Jul-22 16:00N 51°24' E 002°05'1212.2
2018-Jul-22 15:01N 51°22' E 002°24'612.9
2018-Jul-22 14:31N 51°23' E 002°34'611.5
2018-Jul-22 14:00N 51°22' E 002°43'612.6
2018-Jul-22 13:30N 51°23' E 002°53'713.6
2018-Jul-22 12:59N 51°24' E 003°04'713.6
2018-Jul-22 12:30N 51°25' E 003°14'714.0
2018-Jul-22 12:00N 51°25' E 003°25'713.4
2018-Jul-22 11:31N 51°26' E 003°36'611.4
2018-Jul-22 11:00N 51°24' E 003°45'611.6
2018-Jul-22 10:30N 51°23' E 003°54'510.2
2018-Jul-22 10:00N 51°26' E 004°00'510.4
2018-Jul-22 09:31N 51°22' E 004°05'5 9.5
2018-Jul-22 09:01N 51°23' E 004°13'510.7
2018-Jul-22 08:30N 51°18' E 004°16'2 3.0
2018-Jul-22 07:55N 51°17' E 004°15'1 1.8
2018-Jul-22 07:30N 51°17' E 004°14'0 0.5
2018-Jul-22 06:55N 51°17' E 004°14'0 0.0
2018-Jul-22 06:19N 51°17' E 004°14'0 0.0
2018-Jul-22 05:10N 51°17' E 004°14'0 0.0
2018-Jul-22 04:55N 51°17' E 004°14'0 0.0
2018-Jul-22 04:19N 51°17' E 004°14'0 0.0
2018-Jul-22 03:58N 51°17' E 004°14'0 0.0
2018-Jul-22 03:25N 51°17' E 004°14'0 0.0
2018-Jul-22 02:58N 51°17' E 004°14'0 0.0
2018-Jul-22 02:28N 51°17' E 004°14'0 0.0
2018-Jul-22 01:55N 51°17' E 004°14'0 0.0
2018-Jul-22 00:25N 51°17' E 004°14'0 0.0
2018-Jul-21 23:43N 51°17' E 004°14'0 0.0
2018-Jul-21 23:16N 51°17' E 004°14'0 0.0
2018-Jul-21 22:43N 51°17' E 004°14'0 0.0
2018-Jul-21 22:28N 51°17' E 004°14'0 0.0
2018-Jul-21 21:58N 51°17' E 004°14'0 0.0
2018-Jul-21 21:25N 51°17' E 004°14'0 0.0
2018-Jul-21 20:58N 51°17' E 004°14'0 0.0
2018-Jul-21 20:28N 51°17' E 004°14'0 0.0
2018-Jul-21 19:49N 51°17' E 004°14'0 0.0
2018-Jul-21 19:25N 51°17' E 004°14'0 0.0
2018-Jul-21 18:58N 51°17' E 004°14'0 0.0
2018-Jul-21 18:25N 51°17' E 004°14'0 0.0
2018-Jul-21 17:55N 51°17' E 004°14'0 0.0
2018-Jul-21 17:28N 51°17' E 004°14'0 0.0
2018-Jul-21 16:52N 51°17' E 004°14'0 0.0
2018-Jul-21 16:28N 51°17' E 004°14'0 0.0
2018-Jul-21 15:58N 51°17' E 004°14'0 0.0
2018-Jul-21 15:28N 51°17' E 004°14'0 0.0
2018-Jul-21 11:10N 51°17' E 004°14'0 0.0
2018-Jul-21 10:52N 51°17' E 004°14'0 0.0
2018-Jul-21 07:02N 51°17' E 004°14'0 0.0
2018-Jul-21 07:01N 51°17' E 004°14'0 0.6
2018-Jul-21 06:31N 51°17' E 004°14'2 4.0
2018-Jul-21 06:01N 51°16' E 004°17'0 0.4
2018-Jul-21 05:30N 51°16' E 004°17'2 4.1
2018-Jul-21 05:01N 51°17' E 004°20'0 0.0
2018-Jul-21 04:31N 51°17' E 004°20'0 0.3
2018-Jul-21 04:00N 51°17' E 004°20'2 4.2
2018-Jul-21 03:30N 51°15' E 004°23'0 0.3
2018-Jul-21 03:00N 51°15' E 004°23'0 0.0
2018-Jul-21 02:29N 51°15' E 004°23'0 0.0
2018-Jul-21 01:59N 51°15' E 004°23'0 0.0
2018-Jul-21 01:26N 51°15' E 004°23'0 0.0
2018-Jul-21 00:59N 51°15' E 004°23'0 0.0
2018-Jul-21 00:29N 51°15' E 004°23'0 0.0
2018-Jul-20 23:59N 51°15' E 004°23'0 0.0
2018-Jul-20 23:29N 51°15' E 004°23'0 0.0
2018-Jul-20 22:56N 51°15' E 004°23'0 0.0
2018-Jul-20 22:29N 51°15' E 004°23'0 0.0
2018-Jul-20 21:59N 51°15' E 004°23'0 0.0
2018-Jul-20 21:29N 51°15' E 004°23'0 0.0
2018-Jul-20 20:59N 51°15' E 004°23'0 0.0
2018-Jul-20 20:29N 51°15' E 004°23'0 0.0
2018-Jul-20 19:59N 51°15' E 004°23'0 0.0
2018-Jul-20 19:29N 51°15' E 004°23'0 0.0
2018-Jul-20 18:59N 51°15' E 004°23'0 0.0
2018-Jul-20 18:29N 51°15' E 004°23'0 0.0
2018-Jul-20 17:59N 51°15' E 004°23'0 0.0
2018-Jul-20 17:29N 51°15' E 004°23'0 0.0
2018-Jul-20 16:59N 51°15' E 004°23'0 0.0
2018-Jul-20 16:29N 51°15' E 004°23'0 0.0
2018-Jul-20 15:59N 51°15' E 004°23'0 0.0
2018-Jul-20 15:29N 51°15' E 004°23'0 0.0
2018-Jul-20 14:59N 51°15' E 004°23'0 0.0
2018-Jul-20 14:29N 51°15' E 004°23'0 0.0
2018-Jul-20 13:59N 51°15' E 004°23'0 0.0
2018-Jul-20 13:29N 51°15' E 004°23'0 0.0
2018-Jul-20 12:59N 51°15' E 004°23'0 0.0
2018-Jul-20 12:29N 51°15' E 004°23'0 0.0
2018-Jul-20 11:59N 51°15' E 004°23'0 0.0
2018-Jul-20 11:29N 51°15' E 004°23'0 0.0
2018-Jul-20 10:59N 51°15' E 004°23'0 0.0
2018-Jul-20 10:29N 51°15' E 004°23'0 0.0
2018-Jul-20 09:56N 51°15' E 004°23'0 0.0
2018-Jul-20 09:29N 51°15' E 004°23'0 0.0
2018-Jul-20 08:59N 51°15' E 004°23'0 0.0
2018-Jul-20 08:29N 51°15' E 004°23'0 0.0
2018-Jul-20 07:59N 51°15' E 004°23'0 0.0
2018-Jul-20 07:29N 51°15' E 004°23'0 0.0
2018-Jul-20 06:59N 51°15' E 004°23'0 0.0
2018-Jul-20 06:29N 51°15' E 004°23'0 0.0
2018-Jul-20 05:53N 51°15' E 004°23'0 0.0
2018-Jul-20 05:29N 51°15' E 004°23'0 0.0
2018-Jul-20 04:59N 51°15' E 004°23'0 0.0
2018-Jul-20 04:29N 51°15' E 004°23'0 0.0
2018-Jul-20 03:59N 51°15' E 004°23'0 0.0
2018-Jul-20 03:29N 51°15' E 004°23'0 0.0
2018-Jul-20 02:59N 51°15' E 004°23'0 0.0
2018-Jul-20 02:30N 51°15' E 004°23'1 1.2
2018-Jul-20 02:00N 51°15' E 004°22'3 5.5
2018-Jul-20 01:30N 51°18' E 004°20'3 6.1
2018-Jul-20 01:00N 51°20' E 004°18'1 1.3
2018-Jul-20 00:31N 51°21' E 004°17'0 0.1
2018-Jul-20 00:00N 51°21' E 004°17'2 3.3
2018-Jul-19 23:30N 51°21' E 004°14'2 4.0
2018-Jul-19 23:00N 51°23' E 004°13'3 5.6
2018-Jul-19 22:30N 51°22' E 004°08'4 8.0
2018-Jul-19 22:00N 51°23' E 004°02'3 6.2
2018-Jul-19 21:30N 51°25' E 003°58'5 9.9
2018-Jul-19 21:00N 51°21' E 003°53'510.5
2018-Jul-19 20:30N 51°22' E 003°45'510.9
2018-Jul-19 20:00N 51°26' E 003°39'510.1
2018-Jul-19 19:31N 51°27' E 003°31'511.0
2018-Jul-19 19:00N 51°31' E 003°26'611.8
2018-Jul-19 18:30N 51°37' E 003°22'612.4
2018-Jul-19 18:00N 51°42' E 003°16'510.8
2018-Jul-19 17:30N 51°47' E 003°15'3 5.9
2018-Jul-19 17:00N 51°49' E 003°19'3 6.3
2018-Jul-19 16:28N 51°49' E 003°24'0 0.0
2018-Jul-19 15:58N 51°49' E 003°24'0 0.0
2018-Jul-19 15:28N 51°49' E 003°24'0 0.0
2018-Jul-19 14:58N 51°49' E 003°24'0 0.0
2018-Jul-19 14:28N 51°49' E 003°24'0 0.0
2018-Jul-19 13:25N 51°49' E 003°24'0 0.0
2018-Jul-19 12:58N 51°49' E 003°24'0 0.0
2018-Jul-19 12:25N 51°49' E 003°24'0 0.0
2018-Jul-19 11:58N 51°49' E 003°24'0 0.0
2018-Jul-19 11:28N 51°49' E 003°24'0 0.0
2018-Jul-19 10:58N 51°49' E 003°24'0 0.0
2018-Jul-19 10:25N 51°49' E 003°24'0 0.1
2018-Jul-19 09:55N 51°49' E 003°24'0 0.1
2018-Jul-19 09:25N 51°49' E 003°24'0 0.0
2018-Jul-19 08:59N 51°49' E 003°24'0 0.0
2018-Jul-19 08:28N 51°49' E 003°24'0 0.0
2018-Jul-19 07:58N 51°49' E 003°24'0 0.0
2018-Jul-19 07:28N 51°49' E 003°24'0 0.0
2018-Jul-19 06:58N 51°49' E 003°24'0 0.0
2018-Jul-19 06:28N 51°49' E 003°24'0 0.0
2018-Jul-19 05:58N 51°49' E 003°24'0 0.0
2018-Jul-19 05:28N 51°49' E 003°24'0 0.0
2018-Jul-19 04:58N 51°49' E 003°24'0 0.1
2018-Jul-19 04:28N 51°49' E 003°24'0 0.1
2018-Jul-19 03:58N 51°49' E 003°24'0 0.1
2018-Jul-19 03:28N 51°49' E 003°24'0 0.0
2018-Jul-19 02:52N 51°49' E 003°24'0 0.0
2018-Jul-19 02:25N 51°49' E 003°24'0 0.0
2018-Jul-19 01:58N 51°49' E 003°24'1 3.1
2018-Jul-19 01:30N 51°49' E 003°22'3 7.1
2018-Jul-19 01:01N 51°52' E 003°17'714.4
2018-Jul-19 00:30N 51°59' E 003°19'713.1
2018-Jul-19 00:00N 52°05' E 003°21'612.4
2018-Jul-18 23:30N 52°12' E 003°23'611.9
2018-Jul-18 23:00N 52°17' E 003°25'612.5
2018-Jul-18 22:31N 52°24' E 003°26'612.0
2018-Jul-18 22:00N 52°30' E 003°28'611.7
2018-Jul-18 21:31N 52°35' E 003°30'611.2
2018-Jul-18 21:01N 52°40' E 003°34'611.1
2018-Jul-18 20:31N 52°44' E 003°40'611.0
2018-Jul-18 20:00N 52°49' E 003°46'510.6
2018-Jul-18 19:30N 52°53' E 003°51'510.5
2018-Jul-18 19:00N 52°57' E 003°57'510.8
2018-Jul-18 18:31N 53°01' E 004°03'611.4
2018-Jul-18 18:01N 53°04' E 004°11'612.3
2018-Jul-18 17:30N 53°08' E 004°19'612.0
2018-Jul-18 17:01N 53°12' E 004°25'612.6
2018-Jul-18 16:31N 53°18' E 004°30'612.6
2018-Jul-18 16:01N 53°24' E 004°34'612.5
2018-Jul-18 15:30N 53°29' E 004°40'612.8
2018-Jul-18 15:01N 53°31' E 004°50'612.8
2018-Jul-18 14:30N 53°34' E 005°01'1312.8
2018-Jul-18 13:31N 53°37' E 005°21'612.1
2018-Jul-18 13:00N 53°39' E 005°31'611.6
2018-Jul-18 12:31N 53°41' E 005°40'611.4
2018-Jul-18 12:01N 53°43' E 005°49'611.3
2018-Jul-18 11:30N 53°45' E 005°58'6311.0
2018-Jul-18 05:43N 53°54' E 007°45'411.8
2018-Jul-18 05:22N 53°52' E 007°51'412.6
2018-Jul-18 05:00N 53°49' E 007°56'612.5
2018-Jul-18 04:30N 53°44' E 008°04'612.1
2018-Jul-18 04:00N 53°39' E 008°06'0 0.5
2018-Jul-18 03:30N 53°38' E 008°07'0 0.0
2018-Jul-18 02:56N 53°38' E 008°07'0 0.0
2018-Jul-18 02:29N 53°38' E 008°07'0 0.0
2018-Jul-18 01:59N 53°38' E 008°07'0 0.0
2018-Jul-18 01:29N 53°38' E 008°07'0 0.0
2018-Jul-18 00:59N 53°38' E 008°07'0 0.0
2018-Jul-18 00:29N 53°38' E 008°07'0 0.0
2018-Jul-17 23:50N 53°38' E 008°07'0 0.0
2018-Jul-17 23:26N 53°38' E 008°07'0 0.0
2018-Jul-17 20:35N 53°38' E 008°07'0 0.0
2018-Jul-17 19:26N 53°38' E 008°07'0 0.0
2018-Jul-17 18:56N 53°38' E 008°07'0 0.0
2018-Jul-17 11:17N 53°38' E 008°07'0 0.0
2018-Jul-17 10:50N 53°38' E 008°07'0 0.0
2018-Jul-17 08:11N 53°38' E 008°07'0 0.0
2018-Jul-17 07:59N 53°38' E 008°07'0 0.3
2018-Jul-17 07:30N 53°39' E 008°06'3 5.4
2018-Jul-17 07:00N 53°41' E 008°05'5 9.3
2018-Jul-17 06:30N 53°45' E 008°03'4 7.6
2018-Jul-17 06:00N 53°48' E 007°58'4 8.9
2018-Jul-17 05:30N 53°51' E 007°52'4 7.8
2018-Jul-17 05:00N 53°52' E 007°46'610.6
2018-Jul-17 04:25N 53°54' E 007°36'511.3
2018-Jul-17 04:00N 53°54' E 007°28'611.6
2018-Jul-17 03:27N 53°52' E 007°17'1412.0
2018-Jul-17 02:18N 53°49' E 006°55'412.2
2018-Jul-17 01:59N 53°48' E 006°48'612.4
2018-Jul-17 01:30N 53°47' E 006°38'1212.8
2018-Jul-17 00:35N 53°44' E 006°19'212.7
2018-Jul-17 00:27N 53°44' E 006°16'1513.2
2018-Jul-16 23:20N 53°39' E 005°53'513.3
2018-Jul-16 22:58N 53°37' E 005°45'613.2
2018-Jul-16 22:30N 53°36' E 005°35'713.3
2018-Jul-16 22:00N 53°34' E 005°24'713.3
2018-Jul-16 21:30N 53°31' E 005°14'713.4
2018-Jul-16 21:00N 53°29' E 005°04'713.6
2018-Jul-16 20:30N 53°26' E 004°53'713.5
2018-Jul-16 20:00N 53°23' E 004°43'713.8
2018-Jul-16 19:30N 53°17' E 004°37'714.4
2018-Jul-16 19:00N 53°11' E 004°32'714.2
2018-Jul-16 18:30N 53°05' E 004°26'714.3
2018-Jul-16 18:00N 52°59' E 004°20'714.2
2018-Jul-16 17:30N 52°52' E 004°15'713.6
2018-Jul-16 17:00N 52°46' E 004°08'813.8
2018-Jul-16 16:23N 52°40' E 003°59'513.6
2018-Jul-16 16:00N 52°37' E 003°53'612.8
2018-Jul-16 15:30N 52°32' E 003°45'612.4
2018-Jul-16 15:00N 52°28' E 003°38'612.0
2018-Jul-16 14:30N 52°23' E 003°32'611.7
2018-Jul-16 14:00N 52°19' E 003°25'611.4
2018-Jul-16 13:30N 52°14' E 003°19'510.7
2018-Jul-16 13:00N 52°11' E 003°12'510.8
2018-Jul-16 12:30N 52°07' E 003°07'710.7
2018-Jul-16 11:53N 52°02' E 002°60'410.0
2018-Jul-16 11:30N 51°59' E 002°55'5 9.7
2018-Jul-16 11:00N 51°56' E 002°50'5 9.5
2018-Jul-16 10:31N 51°52' E 002°45'5 9.5
2018-Jul-16 10:01N 51°48' E 002°40'5 9.5
2018-Jul-16 09:30N 51°45' E 002°35'5 9.8
2018-Jul-16 09:00N 51°41' E 002°30'510.3
2018-Jul-16 08:30N 51°37' E 002°24'611.0
2018-Jul-16 08:00N 51°33' E 002°19'611.2
2018-Jul-16 07:30N 51°28' E 002°14'612.0
2018-Jul-16 07:00N 51°22' E 002°11'612.2
2018-Jul-16 06:30N 51°17' E 002°06'611.7
2018-Jul-16 06:00N 51°13' E 001°60'611.6
2018-Jul-16 05:30N 51°10' E 001°52'612.0
2018-Jul-16 05:00N 51°06' E 001°44'612.6
2018-Jul-16 04:30N 51°01' E 001°38'713.2
2018-Jul-16 04:00N 50°56' E 001°31'713.4
2018-Jul-16 03:30N 50°50' E 001°26'713.5
2018-Jul-16 03:00N 50°44' E 001°22'612.3
2018-Jul-16 02:30N 50°39' E 001°16'612.9
2018-Jul-16 02:00N 50°35' E 001°08'612.5
2018-Jul-16 01:30N 50°31' E 001°01'612.0
2018-Jul-16 01:00N 50°28' E 000°53'612.4
2018-Jul-16 00:30N 50°27' E 000°43'612.8
2018-Jul-16 00:00N 50°25' E 000°33'713.3
2018-Jul-15 23:30N 50°23' E 000°23'713.8
2018-Jul-15 23:01N 50°21' E 000°13'714.1
2018-Jul-15 22:30N 50°20' E 000°02'714.1
2018-Jul-15 22:00N 50°18' W 000°09'714.0
2018-Jul-15 21:30N 50°16' W 000°19'714.0
2018-Jul-15 21:00N 50°14' W 000°30'713.8
2018-Jul-15 20:30N 50°12' W 000°40'713.7
2018-Jul-15 20:01N 50°11' W 000°50'713.1
2018-Jul-15 19:30N 50°09' W 001°00'612.2
2018-Jul-15 19:01N 50°08' W 001°10'611.2
2018-Jul-15 18:29N 50°06' W 001°19'510.3
2018-Jul-15 18:00N 50°05' W 001°26'6 9.4
2018-Jul-15 17:22N 50°04' W 001°35'3 8.5
2018-Jul-15 17:01N 50°03' W 001°40'4 8.0
2018-Jul-15 16:29N 50°01' W 001°46'4 7.4
2018-Jul-15 15:55N 50°00' W 001°52'3 7.1
2018-Jul-15 15:30N 49°59' W 001°56'3 6.9
2018-Jul-15 15:00N 49°58' W 002°01'4 7.1
2018-Jul-15 14:30N 49°57' W 002°07'4 8.1
2018-Jul-15 13:59N 49°57' W 002°13'4 9.2
2018-Jul-15 13:30N 49°56' W 002°20'510.2
2018-Jul-15 13:00N 49°54' W 002°28'510.7
2018-Jul-15 12:30N 49°53' W 002°36'5 9.2
2018-Jul-15 12:00N 49°52' W 002°43'612.0
2018-Jul-15 11:31N 49°50' W 002°51'612.2
2018-Jul-15 11:01N 49°49' W 003°01'612.5
2018-Jul-15 10:30N 49°49' W 003°10'612.5
2018-Jul-15 10:00N 49°48' W 003°20'611.8
2018-Jul-15 09:30N 49°48' W 003°29'611.8
2018-Jul-15 09:00N 49°47' W 003°38'612.0
2018-Jul-15 08:30N 49°47' W 003°47'2512.3
2018-Jul-15 06:27N 49°45' W 004°26'512.0
2018-Jul-15 05:59N 49°45' W 004°35'612.3
2018-Jul-15 05:30N 49°45' W 004°44'612.1
2018-Jul-15 05:01N 49°45' W 004°53'611.7
2018-Jul-15 04:30N 49°44' W 005°02'811.1
2018-Jul-15 03:49N 49°44' W 005°14'410.8
2018-Jul-15 03:26N 49°44' W 005°21'510.7
2018-Jul-15 03:00N 49°44' W 005°28'510.5
2018-Jul-15 02:30N 49°43' W 005°36'5 9.3
2018-Jul-15 02:00N 49°45' W 005°43'710.4
2018-Jul-15 01:22N 49°50' W 005°50'410.2
2018-Jul-15 01:01N 49°52' W 005°54'7 9.9
2018-Jul-15 00:20N 49°57' W 006°00'411.8
2018-Jul-15 00:00N 50°01' W 006°00'12711.6
2018-Jul-14 13:01N 52°08' W 005°43'112.6
2018-Jul-14 12:58N 52°09' W 005°43'612.8
2018-Jul-14 12:30N 52°14' W 005°39'1012.0
2018-Jul-14 11:40N 52°24' W 005°34'211.3
2018-Jul-14 11:29N 52°26' W 005°33'33 9.1
2018-Jul-14 07:48N 52°57' W 005°13'6310.4
2018-Jul-14 01:41N 53°34' W 003°47'212.8
2018-Jul-14 01:30N 53°34' W 003°43'612.5
2018-Jul-14 01:00N 53°33' W 003°33'612.0
2018-Jul-14 00:30N 53°33' W 003°23'611.2
2018-Jul-14 00:00N 53°31' W 003°13'510.6
2018-Jul-13 23:30N 53°29' W 003°05'510.5
2018-Jul-13 23:00N 53°25' W 003°01'4 8.6
2018-Jul-13 22:30N 53°21' W 002°58'2 3.1
2018-Jul-13 22:00N 53°19' W 002°57'0 0.2
2018-Jul-13 21:29N 53°19' W 002°57'0 0.0
2018-Jul-13 20:59N 53°19' W 002°57'0 0.0
2018-Jul-13 18:32N 53°19' W 002°57'0 0.0
2018-Jul-13 18:26N 53°19' W 002°57'0 0.0
2018-Jul-13 17:56N 53°19' W 002°57'0 0.0
2018-Jul-13 17:26N 53°19' W 002°57'0 0.0
2018-Jul-13 16:56N 53°19' W 002°57'0 0.0
2018-Jul-13 15:44N 53°19' W 002°57'0 0.0
2018-Jul-13 15:26N 53°19' W 002°57'0 0.0
2018-Jul-13 14:56N 53°19' W 002°57'0 0.0
2018-Jul-13 14:29N 53°19' W 002°57'0 0.0
2018-Jul-13 13:26N 53°19' W 002°57'0 0.0
2018-Jul-13 12:56N 53°19' W 002°57'0 0.0
2018-Jul-13 12:14N 53°19' W 002°57'0 0.0
2018-Jul-13 11:56N 53°19' W 002°57'0 0.0
2018-Jul-13 09:50N 53°19' W 002°57'  
Track history (hours):
 
Tides and Currents Weather Stations Pressure Air Temp Water Temp Dewpoint Dewpoint Depression Visibility Wind Speed Wind Dir Waves Ship Positions

Azuryth

Last reported at 2018-Jul-23 09:30 UTC. Time now 2018-Jul-23 09:42 UTC.
Position N 50°04' W 002°35'.

Length 105 m; draft 5.6 m.

Type: Ship (hazmat cat B). MMSI: 212228000.

Date/timePositionNaut miles runAvg speedWind from/ knotsBaromVisibWave heightAir tempDewpointWater temp
2018-Jul-23 09:30N 50°04' W 002°35'1012.9
2018-Jul-23 08:45N 50°06' W 002°21'312.6
2018-Jul-23 08:30N 50°07' W 002°16'612.4
2018-Jul-23 07:59N 50°09' W 002°06'611.8
2018-Jul-23 07:30N 50°11' W 001°58'611.3
2018-Jul-23 07:00N 50°12' W 001°49'510.8
2018-Jul-23 06:30N 50°13' W 001°41'610.4
2018-Jul-23 05:58N 50°15' W 001°33'510.0
2018-Jul-23 05:31N 50°16' W 001°26'5 9.8
2018-Jul-23 05:00N 50°17' W 001°18'5 9.7
2018-Jul-23 04:31N 50°19' W 001°11'5 9.5
2018-Jul-23 04:00N 50°20' W 001°04'5 9.8
2018-Jul-23 03:30N 50°22' W 000°57'510.6
2018-Jul-23 03:00N 50°24' W 000°49'611.1
2018-Jul-23 02:30N 50°25' W 000°40'611.3
2018-Jul-23 02:01N 50°26' W 000°32'611.7
2018-Jul-23 01:31N 50°28' W 000°23'612.0
2018-Jul-23 01:01N 50°29' W 000°14'612.2
2018-Jul-23 00:30N 50°31' W 000°05'612.5
2018-Jul-23 00:00N 50°33' E 000°05'612.6
2018-Jul-22 23:30N 50°34' E 000°14'612.7
2018-Jul-22 23:00N 50°36' E 000°24'612.3
2018-Jul-22 22:30N 50°38' E 000°33'611.9
2018-Jul-22 22:00N 50°41' E 000°41'611.6
2018-Jul-22 21:31N 50°44' E 000°49'611.2
2018-Jul-22 21:01N 50°48' E 000°56'510.7
2018-Jul-22 20:31N 50°51' E 001°02'510.5
2018-Jul-22 20:00N 50°54' E 001°09'510.2
2018-Jul-22 19:30N 50°57' E 001°15'510.0
2018-Jul-22 19:00N 51°01' E 001°21'510.6
2018-Jul-22 18:30N 51°04' E 001°28'612.4
2018-Jul-22 18:00N 51°08' E 001°35'612.8
2018-Jul-22 17:31N 51°12' E 001°43'713.0
2018-Jul-22 17:00N 51°17' E 001°50'713.6
2018-Jul-22 16:31N 51°23' E 001°57'510.3
2018-Jul-22 16:00N 51°24' E 002°05'1212.2
2018-Jul-22 15:01N 51°22' E 002°24'612.9
2018-Jul-22 14:31N 51°23' E 002°34'611.5
2018-Jul-22 14:00N 51°22' E 002°43'612.6
2018-Jul-22 13:30N 51°23' E 002°53'713.6
2018-Jul-22 12:59N 51°24' E 003°04'713.6
2018-Jul-22 12:30N 51°25' E 003°14'714.0
2018-Jul-22 12:00N 51°25' E 003°25'713.4
2018-Jul-22 11:31N 51°26' E 003°36'611.4
2018-Jul-22 11:00N 51°24' E 003°45'611.6
2018-Jul-22 10:30N 51°23' E 003°54'510.2
2018-Jul-22 10:00N 51°26' E 004°00'510.4
2018-Jul-22 09:31N 51°22' E 004°05'5 9.5
2018-Jul-22 09:01N 51°23' E 004°13'510.7
2018-Jul-22 08:30N 51°18' E 004°16'2 3.0
2018-Jul-22 07:55N 51°17' E 004°15'1 1.8
2018-Jul-22 07:30N 51°17' E 004°14'0 0.5
2018-Jul-22 06:55N 51°17' E 004°14'0 0.0
2018-Jul-22 06:19N 51°17' E 004°14'0 0.0
2018-Jul-22 05:10N 51°17' E 004°14'0 0.0
2018-Jul-22 04:55N 51°17' E 004°14'0 0.0
2018-Jul-22 04:19N 51°17' E 004°14'0 0.0
2018-Jul-22 03:58N 51°17' E 004°14'0 0.0
2018-Jul-22 03:25N 51°17' E 004°14'0 0.0
2018-Jul-22 02:58N 51°17' E 004°14'0 0.0
2018-Jul-22 02:28N 51°17' E 004°14'0 0.0
2018-Jul-22 01:55N 51°17' E 004°14'0 0.0
2018-Jul-22 00:25N 51°17' E 004°14'0 0.0
2018-Jul-21 23:43N 51°17' E 004°14'0 0.0
2018-Jul-21 23:16N 51°17' E 004°14'0 0.0
2018-Jul-21 22:43N 51°17' E 004°14'0 0.0
2018-Jul-21 22:28N 51°17' E 004°14'0 0.0
2018-Jul-21 21:58N 51°17' E 004°14'0 0.0
2018-Jul-21 21:25N 51°17' E 004°14'0 0.0
2018-Jul-21 20:58N 51°17' E 004°14'0 0.0
2018-Jul-21 20:28N 51°17' E 004°14'0 0.0
2018-Jul-21 19:49N 51°17' E 004°14'0 0.0
2018-Jul-21 19:25N 51°17' E 004°14'0 0.0
2018-Jul-21 18:58N 51°17' E 004°14'0 0.0
2018-Jul-21 18:25N 51°17' E 004°14'0 0.0
2018-Jul-21 17:55N 51°17' E 004°14'0 0.0
2018-Jul-21 17:28N 51°17' E 004°14'0 0.0
2018-Jul-21 16:52N 51°17' E 004°14'0 0.0
2018-Jul-21 16:28N 51°17' E 004°14'0 0.0
2018-Jul-21 15:58N 51°17' E 004°14'0 0.0
2018-Jul-21 15:28N 51°17' E 004°14'0 0.0
2018-Jul-21 11:10N 51°17' E 004°14'0 0.0
2018-Jul-21 10:52N 51°17' E 004°14'0 0.0
2018-Jul-21 07:02N 51°17' E 004°14'0 0.0
2018-Jul-21 07:01N 51°17' E 004°14'0 0.6
2018-Jul-21 06:31N 51°17' E 004°14'2 4.0
2018-Jul-21 06:01N 51°16' E 004°17'0 0.4
2018-Jul-21 05:30N 51°16' E 004°17'2 4.1
2018-Jul-21 05:01N 51°17' E 004°20'0 0.0
2018-Jul-21 04:31N 51°17' E 004°20'0 0.3
2018-Jul-21 04:00N 51°17' E 004°20'2 4.2
2018-Jul-21 03:30N 51°15' E 004°23'0 0.3
2018-Jul-21 03:00N 51°15' E 004°23'0 0.0
2018-Jul-21 02:29N 51°15' E 004°23'0 0.0
2018-Jul-21 01:59N 51°15' E 004°23'0 0.0
2018-Jul-21 01:26N 51°15' E 004°23'0 0.0
2018-Jul-21 00:59N 51°15' E 004°23'0 0.0
2018-Jul-21 00:29N 51°15' E 004°23'0 0.0
2018-Jul-20 23:59N 51°15' E 004°23'0 0.0
2018-Jul-20 23:29N 51°15' E 004°23'0 0.0
2018-Jul-20 22:56N 51°15' E 004°23'0 0.0
2018-Jul-20 22:29N 51°15' E 004°23'0 0.0
2018-Jul-20 21:59N 51°15' E 004°23'0 0.0
2018-Jul-20 21:29N 51°15' E 004°23'0 0.0
2018-Jul-20 20:59N 51°15' E 004°23'0 0.0
2018-Jul-20 20:29N 51°15' E 004°23'0 0.0
2018-Jul-20 19:59N 51°15' E 004°23'0 0.0
2018-Jul-20 19:29N 51°15' E 004°23'0 0.0
2018-Jul-20 18:59N 51°15' E 004°23'0 0.0
2018-Jul-20 18:29N 51°15' E 004°23'0 0.0
2018-Jul-20 17:59N 51°15' E 004°23'0 0.0
2018-Jul-20 17:29N 51°15' E 004°23'0 0.0
2018-Jul-20 16:59N 51°15' E 004°23'0 0.0
2018-Jul-20 16:29N 51°15' E 004°23'0 0.0
2018-Jul-20 15:59N 51°15' E 004°23'0 0.0
2018-Jul-20 15:29N 51°15' E 004°23'0 0.0
2018-Jul-20 14:59N 51°15' E 004°23'0 0.0
2018-Jul-20 14:29N 51°15' E 004°23'0 0.0
2018-Jul-20 13:59N 51°15' E 004°23'0 0.0
2018-Jul-20 13:29N 51°15' E 004°23'0 0.0
2018-Jul-20 12:59N 51°15' E 004°23'0 0.0
2018-Jul-20 12:29N 51°15' E 004°23'0 0.0
2018-Jul-20 11:59N 51°15' E 004°23'0 0.0
2018-Jul-20 11:29N 51°15' E 004°23'0 0.0
2018-Jul-20 10:59N 51°15' E 004°23'0 0.0
2018-Jul-20 10:29N 51°15' E 004°23'0 0.0
2018-Jul-20 09:56N 51°15' E 004°23'0 0.0
2018-Jul-20 09:29N 51°15' E 004°23'0 0.0
2018-Jul-20 08:59N 51°15' E 004°23'0 0.0
2018-Jul-20 08:29N 51°15' E 004°23'0 0.0
2018-Jul-20 07:59N 51°15' E 004°23'0 0.0
2018-Jul-20 07:29N 51°15' E 004°23'0 0.0
2018-Jul-20 06:59N 51°15' E 004°23'0 0.0
2018-Jul-20 06:29N 51°15' E 004°23'0 0.0
2018-Jul-20 05:53N 51°15' E 004°23'0 0.0
2018-Jul-20 05:29N 51°15' E 004°23'0 0.0
2018-Jul-20 04:59N 51°15' E 004°23'0 0.0
2018-Jul-20 04:29N 51°15' E 004°23'0 0.0
2018-Jul-20 03:59N 51°15' E 004°23'0 0.0
2018-Jul-20 03:29N 51°15' E 004°23'0 0.0
2018-Jul-20 02:59N 51°15' E 004°23'0 0.0
2018-Jul-20 02:30N 51°15' E 004°23'1 1.2
2018-Jul-20 02:00N 51°15' E 004°22'3 5.5
2018-Jul-20 01:30N 51°18' E 004°20'3 6.1
2018-Jul-20 01:00N 51°20' E 004°18'1 1.3
2018-Jul-20 00:31N 51°21' E 004°17'0 0.1
2018-Jul-20 00:00N 51°21' E 004°17'2 3.3
2018-Jul-19 23:30N 51°21' E 004°14'2 4.0
2018-Jul-19 23:00N 51°23' E 004°13'3 5.6
2018-Jul-19 22:30N 51°22' E 004°08'4 8.0
2018-Jul-19 22:00N 51°23' E 004°02'3 6.2
2018-Jul-19 21:30N 51°25' E 003°58'5 9.9
2018-Jul-19 21:00N 51°21' E 003°53'510.5
2018-Jul-19 20:30N 51°22' E 003°45'510.9
2018-Jul-19 20:00N 51°26' E 003°39'510.1
2018-Jul-19 19:31N 51°27' E 003°31'511.0
2018-Jul-19 19:00N 51°31' E 003°26'611.8
2018-Jul-19 18:30N 51°37' E 003°22'612.4
2018-Jul-19 18:00N 51°42' E 003°16'510.8
2018-Jul-19 17:30N 51°47' E 003°15'3 5.9
2018-Jul-19 17:00N 51°49' E 003°19'3 6.3
2018-Jul-19 16:28N 51°49' E 003°24'0 0.0
2018-Jul-19 15:58N 51°49' E 003°24'0 0.0
2018-Jul-19 15:28N 51°49' E 003°24'0 0.0
2018-Jul-19 14:58N 51°49' E 003°24'0 0.0
2018-Jul-19 14:28N 51°49' E 003°24'0 0.0
2018-Jul-19 13:25N 51°49' E 003°24'0 0.0
2018-Jul-19 12:58N 51°49' E 003°24'0 0.0
2018-Jul-19 12:25N 51°49' E 003°24'0 0.0
2018-Jul-19 11:58N 51°49' E 003°24'0 0.0
2018-Jul-19 11:28N 51°49' E 003°24'0 0.0
2018-Jul-19 10:58N 51°49' E 003°24'0 0.0
2018-Jul-19 10:25N 51°49' E 003°24'0 0.1
2018-Jul-19 09:55N 51°49' E 003°24'0 0.1
2018-Jul-19 09:25N 51°49' E 003°24'0 0.0
2018-Jul-19 08:59N 51°49' E 003°24'0 0.0
2018-Jul-19 08:28N 51°49' E 003°24'0 0.0
2018-Jul-19 07:58N 51°49' E 003°24'0 0.0
2018-Jul-19 07:28N 51°49' E 003°24'0 0.0
2018-Jul-19 06:58N 51°49' E 003°24'0 0.0
2018-Jul-19 06:28N 51°49' E 003°24'0 0.0
2018-Jul-19 05:58N 51°49' E 003°24'0 0.0
2018-Jul-19 05:28N 51°49' E 003°24'0 0.0
2018-Jul-19 04:58N 51°49' E 003°24'0 0.1
2018-Jul-19 04:28N 51°49' E 003°24'0 0.1
2018-Jul-19 03:58N 51°49' E 003°24'0 0.1
2018-Jul-19 03:28N 51°49' E 003°24'0 0.0
2018-Jul-19 02:52N 51°49' E 003°24'0 0.0
2018-Jul-19 02:25N 51°49' E 003°24'0 0.0
2018-Jul-19 01:58N 51°49' E 003°24'1 3.1
2018-Jul-19 01:30N 51°49' E 003°22'3 7.1
2018-Jul-19 01:01N 51°52' E 003°17'714.4
2018-Jul-19 00:30N 51°59' E 003°19'713.1
2018-Jul-19 00:00N 52°05' E 003°21'612.4
2018-Jul-18 23:30N 52°12' E 003°23'611.9
2018-Jul-18 23:00N 52°17' E 003°25'612.5
2018-Jul-18 22:31N 52°24' E 003°26'612.0
2018-Jul-18 22:00N 52°30' E 003°28'611.7
2018-Jul-18 21:31N 52°35' E 003°30'611.2
2018-Jul-18 21:01N 52°40' E 003°34'611.1
2018-Jul-18 20:31N 52°44' E 003°40'611.0
2018-Jul-18 20:00N 52°49' E 003°46'510.6
2018-Jul-18 19:30N 52°53' E 003°51'510.5
2018-Jul-18 19:00N 52°57' E 003°57'510.8
2018-Jul-18 18:31N 53°01' E 004°03'611.4
2018-Jul-18 18:01N 53°04' E 004°11'612.3
2018-Jul-18 17:30N 53°08' E 004°19'612.0
2018-Jul-18 17:01N 53°12' E 004°25'612.6
2018-Jul-18 16:31N 53°18' E 004°30'612.6
2018-Jul-18 16:01N 53°24' E 004°34'612.5
2018-Jul-18 15:30N 53°29' E 004°40'612.8
2018-Jul-18 15:01N 53°31' E 004°50'612.8
2018-Jul-18 14:30N 53°34' E 005°01'1312.8
2018-Jul-18 13:31N 53°37' E 005°21'612.1
2018-Jul-18 13:00N 53°39' E 005°31'611.6
2018-Jul-18 12:31N 53°41' E 005°40'611.4
2018-Jul-18 12:01N 53°43' E 005°49'611.3
2018-Jul-18 11:30N 53°45' E 005°58'6311.0
2018-Jul-18 05:43N 53°54' E 007°45'411.8
2018-Jul-18 05:22N 53°52' E 007°51'412.6
2018-Jul-18 05:00N 53°49' E 007°56'612.5
2018-Jul-18 04:30N 53°44' E 008°04'612.1
2018-Jul-18 04:00N 53°39' E 008°06'0 0.5
2018-Jul-18 03:30N 53°38' E 008°07'0 0.0
2018-Jul-18 02:56N 53°38' E 008°07'0 0.0
2018-Jul-18 02:29N 53°38' E 008°07'0 0.0
2018-Jul-18 01:59N 53°38' E 008°07'0 0.0
2018-Jul-18 01:29N 53°38' E 008°07'0 0.0
2018-Jul-18 00:59N 53°38' E 008°07'0 0.0
2018-Jul-18 00:29N 53°38' E 008°07'0 0.0
2018-Jul-17 23:50N 53°38' E 008°07'0 0.0
2018-Jul-17 23:26N 53°38' E 008°07'0 0.0
2018-Jul-17 20:35N 53°38' E 008°07'0 0.0
2018-Jul-17 19:26N 53°38' E 008°07'0 0.0
2018-Jul-17 18:56N 53°38' E 008°07'0 0.0
2018-Jul-17 11:17N 53°38' E 008°07'0 0.0
2018-Jul-17 10:50N 53°38' E 008°07'0 0.0
2018-Jul-17 08:11N 53°38' E 008°07'0 0.0
2018-Jul-17 07:59N 53°38' E 008°07'0 0.3
2018-Jul-17 07:30N 53°39' E 008°06'3 5.4
2018-Jul-17 07:00N 53°41' E 008°05'5 9.3
2018-Jul-17 06:30N 53°45' E 008°03'4 7.6
2018-Jul-17 06:00N 53°48' E 007°58'4 8.9
2018-Jul-17 05:30N 53°51' E 007°52'4 7.8
2018-Jul-17 05:00N 53°52' E 007°46'610.6
2018-Jul-17 04:25N 53°54' E 007°36'511.3
2018-Jul-17 04:00N 53°54' E 007°28'611.6
2018-Jul-17 03:27N 53°52' E 007°17'1412.0
2018-Jul-17 02:18N 53°49' E 006°55'412.2
2018-Jul-17 01:59N 53°48' E 006°48'612.4
2018-Jul-17 01:30N 53°47' E 006°38'1212.8
2018-Jul-17 00:35N 53°44' E 006°19'212.7
2018-Jul-17 00:27N 53°44' E 006°16'1513.2
2018-Jul-16 23:20N 53°39' E 005°53'513.3
2018-Jul-16 22:58N 53°37' E 005°45'613.2
2018-Jul-16 22:30N 53°36' E 005°35'713.3
2018-Jul-16 22:00N 53°34' E 005°24'713.3
2018-Jul-16 21:30N 53°31' E 005°14'713.4
2018-Jul-16 21:00N 53°29' E 005°04'713.6
2018-Jul-16 20:30N 53°26' E 004°53'713.5
2018-Jul-16 20:00N 53°23' E 004°43'713.8
2018-Jul-16 19:30N 53°17' E 004°37'714.4
2018-Jul-16 19:00N 53°11' E 004°32'714.2
2018-Jul-16 18:30N 53°05' E 004°26'714.3
2018-Jul-16 18:00N 52°59' E 004°20'714.2
2018-Jul-16 17:30N 52°52' E 004°15'713.6
2018-Jul-16 17:00N 52°46' E 004°08'813.8
2018-Jul-16 16:23N 52°40' E 003°59'513.6
2018-Jul-16 16:00N 52°37' E 003°53'612.8
2018-Jul-16 15:30N 52°32' E 003°45'612.4
2018-Jul-16 15:00N 52°28' E 003°38'612.0
2018-Jul-16 14:30N 52°23' E 003°32'611.7
2018-Jul-16 14:00N 52°19' E 003°25'611.4
2018-Jul-16 13:30N 52°14' E 003°19'510.7
2018-Jul-16 13:00N 52°11' E 003°12'510.8
2018-Jul-16 12:30N 52°07' E 003°07'710.7
2018-Jul-16 11:53N 52°02' E 002°60'410.0
2018-Jul-16 11:30N 51°59' E 002°55'5 9.7
2018-Jul-16 11:00N 51°56' E 002°50'5 9.5
2018-Jul-16 10:31N 51°52' E 002°45'5 9.5
2018-Jul-16 10:01N 51°48' E 002°40'5 9.5
2018-Jul-16 09:30N 51°45' E 002°35'5 9.8
2018-Jul-16 09:00N 51°41' E 002°30'510.3
2018-Jul-16 08:30N 51°37' E 002°24'611.0
2018-Jul-16 08:00N 51°33' E 002°19'611.2
2018-Jul-16 07:30N 51°28' E 002°14'612.0
2018-Jul-16 07:00N 51°22' E 002°11'612.2
2018-Jul-16 06:30N 51°17' E 002°06'611.7
2018-Jul-16 06:00N 51°13' E 001°60'611.6
2018-Jul-16 05:30N 51°10' E 001°52'612.0
2018-Jul-16 05:00N 51°06' E 001°44'612.6
2018-Jul-16 04:30N 51°01' E 001°38'713.2
2018-Jul-16 04:00N 50°56' E 001°31'713.4
2018-Jul-16 03:30N 50°50' E 001°26'713.5
2018-Jul-16 03:00N 50°44' E 001°22'612.3
2018-Jul-16 02:30N 50°39' E 001°16'612.9
2018-Jul-16 02:00N 50°35' E 001°08'612.5
2018-Jul-16 01:30N 50°31' E 001°01'612.0
2018-Jul-16 01:00N 50°28' E 000°53'612.4
2018-Jul-16 00:30N 50°27' E 000°43'612.8
2018-Jul-16 00:00N 50°25' E 000°33'713.3
2018-Jul-15 23:30N 50°23' E 000°23'713.8
2018-Jul-15 23:01N 50°21' E 000°13'714.1
2018-Jul-15 22:30N 50°20' E 000°02'714.1
2018-Jul-15 22:00N 50°18' W 000°09'714.0
2018-Jul-15 21:30N 50°16' W 000°19'714.0
2018-Jul-15 21:00N 50°14' W 000°30'713.8
2018-Jul-15 20:30N 50°12' W 000°40'713.7
2018-Jul-15 20:01N 50°11' W 000°50'713.1
2018-Jul-15 19:30N 50°09' W 001°00'612.2
2018-Jul-15 19:01N 50°08' W 001°10'611.2
2018-Jul-15 18:29N 50°06' W 001°19'510.3
2018-Jul-15 18:00N 50°05' W 001°26'6 9.4
2018-Jul-15 17:22N 50°04' W 001°35'3 8.5
2018-Jul-15 17:01N 50°03' W 001°40'4 8.0
2018-Jul-15 16:29N 50°01' W 001°46'4 7.4
2018-Jul-15 15:55N 50°00' W 001°52'3 7.1
2018-Jul-15 15:30N 49°59' W 001°56'3 6.9
2018-Jul-15 15:00N 49°58' W 002°01'4 7.1
2018-Jul-15 14:30N 49°57' W 002°07'4 8.1
2018-Jul-15 13:59N 49°57' W 002°13'4 9.2
2018-Jul-15 13:30N 49°56' W 002°20'510.2
2018-Jul-15 13:00N 49°54' W 002°28'510.7
2018-Jul-15 12:30N 49°53' W 002°36'5 9.2
2018-Jul-15 12:00N 49°52' W 002°43'612.0
2018-Jul-15 11:31N 49°50' W 002°51'612.2
2018-Jul-15 11:01N 49°49' W 003°01'612.5
2018-Jul-15 10:30N 49°49' W 003°10'612.5
2018-Jul-15 10:00N 49°48' W 003°20'611.8
2018-Jul-15 09:30N 49°48' W 003°29'611.8
2018-Jul-15 09:00N 49°47' W 003°38'612.0
2018-Jul-15 08:30N 49°47' W 003°47'2512.3
2018-Jul-15 06:27N 49°45' W 004°26'512.0
2018-Jul-15 05:59N 49°45' W 004°35'612.3
2018-Jul-15 05:30N 49°45' W 004°44'612.1
2018-Jul-15 05:01N 49°45' W 004°53'611.7
2018-Jul-15 04:30N 49°44' W 005°02'811.1
2018-Jul-15 03:49N 49°44' W 005°14'410.8
2018-Jul-15 03:26N 49°44' W 005°21'510.7
2018-Jul-15 03:00N 49°44' W 005°28'510.5
2018-Jul-15 02:30N 49°43' W 005°36'5 9.3
2018-Jul-15 02:00N 49°45' W 005°43'710.4
2018-Jul-15 01:22N 49°50' W 005°50'410.2
2018-Jul-15 01:01N 49°52' W 005°54'7 9.9
2018-Jul-15 00:20N 49°57' W 006°00'411.8
2018-Jul-15 00:00N 50°01' W 006°00'12711.6
2018-Jul-14 13:01N 52°08' W 005°43'112.6
2018-Jul-14 12:58N 52°09' W 005°43'612.8
2018-Jul-14 12:30N 52°14' W 005°39'1012.0
2018-Jul-14 11:40N 52°24' W 005°34'211.3
2018-Jul-14 11:29N 52°26' W 005°33'33 9.1
2018-Jul-14 07:48N 52°57' W 005°13'6310.4
2018-Jul-14 01:41N 53°34' W 003°47'212.8
2018-Jul-14 01:30N 53°34' W 003°43'612.5
2018-Jul-14 01:00N 53°33' W 003°33'612.0
2018-Jul-14 00:30N 53°33' W 003°23'611.2
2018-Jul-14 00:00N 53°31' W 003°13'510.6
2018-Jul-13 23:30N 53°29' W 003°05'510.5
2018-Jul-13 23:00N 53°25' W 003°01'4 8.6
2018-Jul-13 22:30N 53°21' W 002°58'2 3.1
2018-Jul-13 22:00N 53°19' W 002°57'0 0.2
2018-Jul-13 21:29N 53°19' W 002°57'0 0.0
2018-Jul-13 20:59N 53°19' W 002°57'0 0.0
2018-Jul-13 18:32N 53°19' W 002°57'0 0.0
2018-Jul-13 18:26N 53°19' W 002°57'0 0.0
2018-Jul-13 17:56N 53°19' W 002°57'0 0.0
2018-Jul-13 17:26N 53°19' W 002°57'0 0.0
2018-Jul-13 16:56N 53°19' W 002°57'0 0.0
2018-Jul-13 15:44N 53°19' W 002°57'0 0.0
2018-Jul-13 15:26N 53°19' W 002°57'0 0.0
2018-Jul-13 14:56N 53°19' W 002°57'0 0.0
2018-Jul-13 14:29N 53°19' W 002°57'0 0.0
2018-Jul-13 13:26N 53°19' W 002°57'0 0.0
2018-Jul-13 12:56N 53°19' W 002°57'0 0.0
2018-Jul-13 12:14N 53°19' W 002°57'0 0.0
2018-Jul-13 11:56N 53°19' W 002°57'0 0.0
2018-Jul-13 09:50N 53°19' W 002°57'  

Dump ship's entire track history